sensor_id;sensor_type;location;lat;lon;timestamp;temperature;humidity
20658;DHT22;10488;50.846;4.078;2022-07-23T00:01:22;15.90;99.90
20658;DHT22;10488;50.846;4.078;2022-07-23T00:03:48;15.50;99.90
20658;DHT22;10488;50.846;4.078;2022-07-23T00:06:14;15.70;99.90
20658;DHT22;10488;50.846;4.078;2022-07-23T00:08:40;15.70;99.90
20658;DHT22;10488;50.846;4.078;2022-07-23T00:11:06;15.50;99.90
20658;DHT22;10488;50.846;4.078;2022-07-23T00:13:32;15.30;99.90
20658;DHT22;10488;50.846;4.078;2022-07-23T00:15:57;15.10;99.90
20658;DHT22;10488;50.846;4.078;2022-07-23T00:18:23;15.20;99.90
20658;DHT22;10488;50.846;4.078;2022-07-23T00:20:49;15.40;99.90
20658;DHT22;10488;50.846;4.078;2022-07-23T00:23:15;15.50;99.90
20658;DHT22;10488;50.846;4.078;2022-07-23T00:25:41;15.50;99.90
20658;DHT22;10488;50.846;4.078;2022-07-23T00:28:06;15.40;99.90
20658;DHT22;10488;50.846;4.078;2022-07-23T00:30:32;14.90;99.90
20658;DHT22;10488;50.846;4.078;2022-07-23T00:33:04;14.80;99.90
20658;DHT22;10488;50.846;4.078;2022-07-23T00:35:35;14.90;99.90
20658;DHT22;10488;50.846;4.078;2022-07-23T00:38:02;15.00;99.90
20658;DHT22;10488;50.846;4.078;2022-07-23T00:40:29;14.90;99.90
20658;DHT22;10488;50.846;4.078;2022-07-23T00:42:55;14.90;99.90
20658;DHT22;10488;50.846;4.078;2022-07-23T00:45:21;14.80;99.90
20658;DHT22;10488;50.846;4.078;2022-07-23T00:47:47;14.80;99.90
20658;DHT22;10488;50.846;4.078;2022-07-23T00:50:13;15.00;99.90
20658;DHT22;10488;50.846;4.078;2022-07-23T00:52:40;15.20;99.90
20658;DHT22;10488;50.846;4.078;2022-07-23T00:55:07;15.30;99.90
20658;DHT22;10488;50.846;4.078;2022-07-23T00:57:34;15.10;99.90
20658;DHT22;10488;50.846;4.078;2022-07-23T01:00:00;15.00;99.90
20658;DHT22;10488;50.846;4.078;2022-07-23T01:02:26;15.00;99.90
20658;DHT22;10488;50.846;4.078;2022-07-23T01:04:52;15.00;99.90
20658;DHT22;10488;50.846;4.078;2022-07-23T01:07:18;15.10;99.90
20658;DHT22;10488;50.846;4.078;2022-07-23T01:09:45;15.20;99.90
20658;DHT22;10488;50.846;4.078;2022-07-23T01:12:11;15.30;99.90
20658;DHT22;10488;50.846;4.078;2022-07-23T01:14:37;15.30;99.90
20658;DHT22;10488;50.846;4.078;2022-07-23T01:17:03;15.30;99.90
20658;DHT22;10488;50.846;4.078;2022-07-23T01:19:29;15.40;99.90
20658;DHT22;10488;50.846;4.078;2022-07-23T01:21:56;15.10;99.90
20658;DHT22;10488;50.846;4.078;2022-07-23T01:24:22;15.20;99.90
20658;DHT22;10488;50.846;4.078;2022-07-23T01:26:48;15.20;99.90
20658;DHT22;10488;50.846;4.078;2022-07-23T01:29:15;15.10;99.90
20658;DHT22;10488;50.846;4.078;2022-07-23T01:31:42;15.10;99.90
20658;DHT22;10488;50.846;4.078;2022-07-23T01:34:08;15.20;99.90
20658;DHT22;10488;50.846;4.078;2022-07-23T01:36:35;15.30;99.90
20658;DHT22;10488;50.846;4.078;2022-07-23T01:39:01;15.00;99.90
20658;DHT22;10488;50.846;4.078;2022-07-23T01:41:27;14.80;99.90
20658;DHT22;10488;50.846;4.078;2022-07-23T01:43:53;14.50;99.90
20658;DHT22;10488;50.846;4.078;2022-07-23T01:46:19;14.40;99.90
20658;DHT22;10488;50.846;4.078;2022-07-23T01:48:44;14.50;99.90
20658;DHT22;10488;50.846;4.078;2022-07-23T01:51:11;14.60;99.90
20658;DHT22;10488;50.846;4.078;2022-07-23T01:53:37;14.60;99.90
20658;DHT22;10488;50.846;4.078;2022-07-23T01:56:03;14.50;99.90
20658;DHT22;10488;50.846;4.078;2022-07-23T01:58:29;14.60;99.90
20658;DHT22;10488;50.846;4.078;2022-07-23T02:00:55;14.70;99.90
20658;DHT22;10488;50.846;4.078;2022-07-23T02:03:21;14.80;99.90
20658;DHT22;10488;50.846;4.078;2022-07-23T02:05:47;14.80;99.90
20658;DHT22;10488;50.846;4.078;2022-07-23T02:08:13;14.40;99.90
20658;DHT22;10488;50.846;4.078;2022-07-23T02:10:39;14.30;99.90
20658;DHT22;10488;50.846;4.078;2022-07-23T02:13:04;14.30;99.90
20658;DHT22;10488;50.846;4.078;2022-07-23T02:15:30;14.40;99.90
20658;DHT22;10488;50.846;4.078;2022-07-23T02:17:56;14.50;99.90
20658;DHT22;10488;50.846;4.078;2022-07-23T02:20:22;14.50;99.90
20658;DHT22;10488;50.846;4.078;2022-07-23T02:22:48;14.60;99.90
20658;DHT22;10488;50.846;4.078;2022-07-23T02:25:13;14.50;99.90
20658;DHT22;10488;50.846;4.078;2022-07-23T02:27:39;14.60;99.90
20658;DHT22;10488;50.846;4.078;2022-07-23T02:30:06;14.70;99.90
20658;DHT22;10488;50.846;4.078;2022-07-23T02:32:32;14.50;99.90
20658;DHT22;10488;50.846;4.078;2022-07-23T02:34:58;14.60;99.90
20658;DHT22;10488;50.846;4.078;2022-07-23T02:37:24;14.60;99.90
20658;DHT22;10488;50.846;4.078;2022-07-23T02:39:49;14.60;99.90
20658;DHT22;10488;50.846;4.078;2022-07-23T02:42:16;14.50;99.90
20658;DHT22;10488;50.846;4.078;2022-07-23T02:44:42;14.30;99.90
20658;DHT22;10488;50.846;4.078;2022-07-23T02:47:07;14.30;99.90
20658;DHT22;10488;50.846;4.078;2022-07-23T02:49:33;14.40;99.90
20658;DHT22;10488;50.846;4.078;2022-07-23T02:51:59;14.50;99.90
20658;DHT22;10488;50.846;4.078;2022-07-23T02:54:25;14.50;99.90
20658;DHT22;10488;50.846;4.078;2022-07-23T02:56:50;14.50;99.90
20658;DHT22;10488;50.846;4.078;2022-07-23T02:59:17;14.60;99.90
20658;DHT22;10488;50.846;4.078;2022-07-23T03:01:43;14.60;99.90
20658;DHT22;10488;50.846;4.078;2022-07-23T03:04:09;14.60;99.90
20658;DHT22;10488;50.846;4.078;2022-07-23T03:06:35;14.30;99.90
20658;DHT22;10488;50.846;4.078;2022-07-23T03:09:01;14.00;99.90
20658;DHT22;10488;50.846;4.078;2022-07-23T03:11:26;14.10;99.90
20658;DHT22;10488;50.846;4.078;2022-07-23T03:13:52;14.30;99.90
20658;DHT22;10488;50.846;4.078;2022-07-23T03:16:18;14.40;99.90
20658;DHT22;10488;50.846;4.078;2022-07-23T03:18:43;14.40;99.90
20658;DHT22;10488;50.846;4.078;2022-07-23T03:21:09;14.40;99.90
20658;DHT22;10488;50.846;4.078;2022-07-23T03:23:35;14.40;99.90
20658;DHT22;10488;50.846;4.078;2022-07-23T03:26:00;14.50;99.90
20658;DHT22;10488;50.846;4.078;2022-07-23T03:28:26;14.50;99.90
20658;DHT22;10488;50.846;4.078;2022-07-23T03:30:52;14.20;99.90
20658;DHT22;10488;50.846;4.078;2022-07-23T03:33:18;13.90;99.90
20658;DHT22;10488;50.846;4.078;2022-07-23T03:35:45;14.00;99.90
20658;DHT22;10488;50.846;4.078;2022-07-23T03:38:11;14.10;99.90
20658;DHT22;10488;50.846;4.078;2022-07-23T03:40:37;14.20;99.90
20658;DHT22;10488;50.846;4.078;2022-07-23T03:43:03;14.30;99.90
20658;DHT22;10488;50.846;4.078;2022-07-23T03:45:29;14.30;99.90
20658;DHT22;10488;50.846;4.078;2022-07-23T03:47:54;14.00;99.90
20658;DHT22;10488;50.846;4.078;2022-07-23T03:50:20;13.90;99.90
20658;DHT22;10488;50.846;4.078;2022-07-23T03:52:46;13.90;99.90
20658;DHT22;10488;50.846;4.078;2022-07-23T03:55:12;14.00;99.90
20658;DHT22;10488;50.846;4.078;2022-07-23T03:57:37;14.00;99.90
20658;DHT22;10488;50.846;4.078;2022-07-23T04:00:05;13.90;99.90
20658;DHT22;10488;50.846;4.078;2022-07-23T04:02:32;13.90;99.90
20658;DHT22;10488;50.846;4.078;2022-07-23T04:04:57;14.00;99.90
20658;DHT22;10488;50.846;4.078;2022-07-23T04:07:23;14.20;99.90
20658;DHT22;10488;50.846;4.078;2022-07-23T04:09:49;14.20;99.90
20658;DHT22;10488;50.846;4.078;2022-07-23T04:12:15;14.00;99.90
20658;DHT22;10488;50.846;4.078;2022-07-23T04:14:40;13.80;99.90
20658;DHT22;10488;50.846;4.078;2022-07-23T04:17:07;13.90;99.90
20658;DHT22;10488;50.846;4.078;2022-07-23T04:19:32;13.80;99.90
20658;DHT22;10488;50.846;4.078;2022-07-23T04:21:58;13.80;99.90
20658;DHT22;10488;50.846;4.078;2022-07-23T04:24:24;14.00;99.90
20658;DHT22;10488;50.846;4.078;2022-07-23T04:26:49;14.20;99.90
20658;DHT22;10488;50.846;4.078;2022-07-23T04:29:15;14.40;99.90
20658;DHT22;10488;50.846;4.078;2022-07-23T04:31:41;14.40;99.90
20658;DHT22;10488;50.846;4.078;2022-07-23T04:34:06;14.20;99.90
20658;DHT22;10488;50.846;4.078;2022-07-23T04:36:32;14.20;99.90
20658;DHT22;10488;50.846;4.078;2022-07-23T04:38:58;14.20;99.90
20658;DHT22;10488;50.846;4.078;2022-07-23T04:41:23;14.00;99.90
20658;DHT22;10488;50.846;4.078;2022-07-23T04:43:49;14.20;99.90
20658;DHT22;10488;50.846;4.078;2022-07-23T04:46:15;14.30;99.90
20658;DHT22;10488;50.846;4.078;2022-07-23T04:48:40;14.60;99.90
20658;DHT22;10488;50.846;4.078;2022-07-23T04:51:07;14.90;99.90
20658;DHT22;10488;50.846;4.078;2022-07-23T04:53:33;15.10;99.90
20658;DHT22;10488;50.846;4.078;2022-07-23T04:55:59;15.20;99.90
20658;DHT22;10488;50.846;4.078;2022-07-23T04:58:25;15.20;99.90
20658;DHT22;10488;50.846;4.078;2022-07-23T05:00:51;15.20;99.90
20658;DHT22;10488;50.846;4.078;2022-07-23T05:03:17;15.50;99.90
20658;DHT22;10488;50.846;4.078;2022-07-23T05:05:43;15.70;99.90
20658;DHT22;10488;50.846;4.078;2022-07-23T05:08:08;15.80;99.90
20658;DHT22;10488;50.846;4.078;2022-07-23T05:10:34;16.00;99.90
20658;DHT22;10488;50.846;4.078;2022-07-23T05:13:00;15.80;99.90
20658;DHT22;10488;50.846;4.078;2022-07-23T05:15:26;15.60;99.90
20658;DHT22;10488;50.846;4.078;2022-07-23T05:17:51;15.60;99.90
20658;DHT22;10488;50.846;4.078;2022-07-23T05:20:17;15.90;99.90
20658;DHT22;10488;50.846;4.078;2022-07-23T05:22:43;16.00;99.90
20658;DHT22;10488;50.846;4.078;2022-07-23T05:25:09;16.30;99.90
20658;DHT22;10488;50.846;4.078;2022-07-23T05:27:34;15.90;99.90
20658;DHT22;10488;50.846;4.078;2022-07-23T05:30:00;15.80;99.90
20658;DHT22;10488;50.846;4.078;2022-07-23T05:32:26;15.90;99.90
20658;DHT22;10488;50.846;4.078;2022-07-23T05:34:52;15.90;99.90
20658;DHT22;10488;50.846;4.078;2022-07-23T05:37:17;15.90;99.90
20658;DHT22;10488;50.846;4.078;2022-07-23T05:39:43;16.30;99.90
20658;DHT22;10488;50.846;4.078;2022-07-23T05:42:09;16.00;99.90
20658;DHT22;10488;50.846;4.078;2022-07-23T05:44:34;15.80;99.90
20658;DHT22;10488;50.846;4.078;2022-07-23T05:47:01;16.20;99.90
20658;DHT22;10488;50.846;4.078;2022-07-23T05:49:27;16.70;99.90
20658;DHT22;10488;50.846;4.078;2022-07-23T05:51:52;17.40;99.90
20658;DHT22;10488;50.846;4.078;2022-07-23T05:54:18;18.30;99.90
20658;DHT22;10488;50.846;4.078;2022-07-23T05:56:43;19.60;99.90
20658;DHT22;10488;50.846;4.078;2022-07-23T05:59:09;20.60;99.90
20658;DHT22;10488;50.846;4.078;2022-07-23T06:01:35;21.60;99.90
20658;DHT22;10488;50.846;4.078;2022-07-23T06:04:00;22.30;99.90
20658;DHT22;10488;50.846;4.078;2022-07-23T06:06:26;22.60;99.90
20658;DHT22;10488;50.846;4.078;2022-07-23T06:08:52;22.30;99.90
20658;DHT22;10488;50.846;4.078;2022-07-23T06:11:18;20.50;99.90
20658;DHT22;10488;50.846;4.078;2022-07-23T06:13:43;20.60;99.90
20658;DHT22;10488;50.846;4.078;2022-07-23T06:16:09;20.70;99.90
20658;DHT22;10488;50.846;4.078;2022-07-23T06:18:35;21.80;99.90
20658;DHT22;10488;50.846;4.078;2022-07-23T06:21:00;22.40;99.90
20658;DHT22;10488;50.846;4.078;2022-07-23T06:23:26;22.90;99.90
20658;DHT22;10488;50.846;4.078;2022-07-23T06:25:52;22.00;99.90
20658;DHT22;10488;50.846;4.078;2022-07-23T06:28:17;22.00;99.90
20658;DHT22;10488;50.846;4.078;2022-07-23T06:30:43;22.10;99.90
20658;DHT22;10488;50.846;4.078;2022-07-23T06:33:09;22.00;99.90
20658;DHT22;10488;50.846;4.078;2022-07-23T06:35:36;22.20;99.90
20658;DHT22;10488;50.846;4.078;2022-07-23T06:38:02;21.60;99.90
20658;DHT22;10488;50.846;4.078;2022-07-23T06:40:28;22.30;99.90
20658;DHT22;10488;50.846;4.078;2022-07-23T06:42:54;21.60;99.90
20658;DHT22;10488;50.846;4.078;2022-07-23T06:45:20;22.40;99.90
20658;DHT22;10488;50.846;4.078;2022-07-23T06:47:45;23.80;99.90
20658;DHT22;10488;50.846;4.078;2022-07-23T06:50:11;23.30;99.90
20658;DHT22;10488;50.846;4.078;2022-07-23T06:52:37;23.60;99.90
20658;DHT22;10488;50.846;4.078;2022-07-23T06:55:03;24.20;99.90
20658;DHT22;10488;50.846;4.078;2022-07-23T06:57:28;24.70;99.90
20658;DHT22;10488;50.846;4.078;2022-07-23T06:59:54;24.20;99.90
20658;DHT22;10488;50.846;4.078;2022-07-23T07:02:20;23.80;99.90
20658;DHT22;10488;50.846;4.078;2022-07-23T07:04:45;23.90;99.90
20658;DHT22;10488;50.846;4.078;2022-07-23T07:07:11;23.80;99.90
20658;DHT22;10488;50.846;4.078;2022-07-23T07:09:37;24.40;99.90
20658;DHT22;10488;50.846;4.078;2022-07-23T07:12:04;24.40;99.90
20658;DHT22;10488;50.846;4.078;2022-07-23T07:14:29;25.00;99.90
20658;DHT22;10488;50.846;4.078;2022-07-23T07:16:55;26.40;99.90
20658;DHT22;10488;50.846;4.078;2022-07-23T07:19:21;25.90;99.90
20658;DHT22;10488;50.846;4.078;2022-07-23T07:21:46;24.40;99.90
20658;DHT22;10488;50.846;4.078;2022-07-23T07:24:12;23.00;99.90
20658;DHT22;10488;50.846;4.078;2022-07-23T07:26:37;23.10;99.90
20658;DHT22;10488;50.846;4.078;2022-07-23T07:29:05;23.90;99.90
20658;DHT22;10488;50.846;4.078;2022-07-23T07:31:31;24.90;99.90
20658;DHT22;10488;50.846;4.078;2022-07-23T07:33:57;25.70;99.90
20658;DHT22;10488;50.846;4.078;2022-07-23T07:36:23;25.60;99.90
20658;DHT22;10488;50.846;4.078;2022-07-23T07:38:49;24.40;99.90
20658;DHT22;10488;50.846;4.078;2022-07-23T07:41:14;24.20;99.90
20658;DHT22;10488;50.846;4.078;2022-07-23T07:43:41;22.80;99.90
20658;DHT22;10488;50.846;4.078;2022-07-23T07:46:07;24.70;99.90
20658;DHT22;10488;50.846;4.078;2022-07-23T07:48:39;26.20;99.90
20658;DHT22;10488;50.846;4.078;2022-07-23T07:51:04;25.80;99.90
20658;DHT22;10488;50.846;4.078;2022-07-23T07:53:30;24.20;99.90
20658;DHT22;10488;50.846;4.078;2022-07-23T07:55:56;24.40;99.90
20658;DHT22;10488;50.846;4.078;2022-07-23T07:58:22;23.60;99.90
20658;DHT22;10488;50.846;4.078;2022-07-23T08:00:47;23.20;99.90
20658;DHT22;10488;50.846;4.078;2022-07-23T08:03:13;23.00;99.90
20658;DHT22;10488;50.846;4.078;2022-07-23T08:05:39;23.20;99.90
20658;DHT22;10488;50.846;4.078;2022-07-23T08:08:05;24.10;99.90
20658;DHT22;10488;50.846;4.078;2022-07-23T08:10:31;24.90;99.90
20658;DHT22;10488;50.846;4.078;2022-07-23T08:12:57;24.30;99.90
20658;DHT22;10488;50.846;4.078;2022-07-23T08:15:25;24.00;99.90
20658;DHT22;10488;50.846;4.078;2022-07-23T08:17:51;25.50;99.90
20658;DHT22;10488;50.846;4.078;2022-07-23T08:20:18;24.10;99.90
20658;DHT22;10488;50.846;4.078;2022-07-23T08:22:53;24.60;99.90
20658;DHT22;10488;50.846;4.078;2022-07-23T08:25:29;23.30;99.90
20658;DHT22;10488;50.846;4.078;2022-07-23T08:27:56;23.90;99.90
20658;DHT22;10488;50.846;4.078;2022-07-23T08:30:22;25.10;99.90
20658;DHT22;10488;50.846;4.078;2022-07-23T08:32:58;25.40;99.90
20658;DHT22;10488;50.846;4.078;2022-07-23T08:35:31;26.00;99.90
20658;DHT22;10488;50.846;4.078;2022-07-23T08:37:58;25.60;99.90
20658;DHT22;10488;50.846;4.078;2022-07-23T08:40:29;25.80;99.90
20658;DHT22;10488;50.846;4.078;2022-07-23T08:42:55;25.50;99.90
20658;DHT22;10488;50.846;4.078;2022-07-23T08:45:23;26.50;99.90
20658;DHT22;10488;50.846;4.078;2022-07-23T08:47:54;27.40;99.90
20658;DHT22;10488;50.846;4.078;2022-07-23T08:50:21;26.70;99.90
20658;DHT22;10488;50.846;4.078;2022-07-23T08:52:49;26.60;99.90
20658;DHT22;10488;50.846;4.078;2022-07-23T08:55:19;25.90;99.90
20658;DHT22;10488;50.846;4.078;2022-07-23T08:57:48;25.60;99.90
20658;DHT22;10488;50.846;4.078;2022-07-23T09:00:14;25.60;99.90
20658;DHT22;10488;50.846;4.078;2022-07-23T09:02:42;25.50;99.90
20658;DHT22;10488;50.846;4.078;2022-07-23T09:05:10;24.70;99.90
20658;DHT22;10488;50.846;4.078;2022-07-23T09:11:00;24.60;99.90
20658;DHT22;10488;50.846;4.078;2022-07-23T09:16:29;25.90;99.90
20658;DHT22;10488;50.846;4.078;2022-07-23T09:24:08;25.30;99.90
20658;DHT22;10488;50.846;4.078;2022-07-23T09:29:17;26.30;99.90
20658;DHT22;10488;50.846;4.078;2022-07-23T09:31:44;26.10;99.90
20658;DHT22;10488;50.846;4.078;2022-07-23T09:36:44;26.40;99.90
20658;DHT22;10488;50.846;4.078;2022-07-23T09:39:11;26.90;99.90
20658;DHT22;10488;50.846;4.078;2022-07-23T09:41:45;27.80;99.90
20658;DHT22;10488;50.846;4.078;2022-07-23T09:44:19;27.50;99.90
20658;DHT22;10488;50.846;4.078;2022-07-23T09:46:58;27.70;99.90
20658;DHT22;10488;50.846;4.078;2022-07-23T09:49:24;26.40;99.90
20658;DHT22;10488;50.846;4.078;2022-07-23T09:51:57;27.60;99.90
20658;DHT22;10488;50.846;4.078;2022-07-23T09:54:37;26.40;99.90
20658;DHT22;10488;50.846;4.078;2022-07-23T09:57:12;27.00;99.90
20658;DHT22;10488;50.846;4.078;2022-07-23T09:59:43;26.60;99.90
20658;DHT22;10488;50.846;4.078;2022-07-23T10:02:11;25.80;99.90
20658;DHT22;10488;50.846;4.078;2022-07-23T10:04:38;26.10;99.90
20658;DHT22;10488;50.846;4.078;2022-07-23T10:07:06;25.90;99.90
20658;DHT22;10488;50.846;4.078;2022-07-23T10:09:35;25.30;99.90
20658;DHT22;10488;50.846;4.078;2022-07-23T10:12:12;25.20;99.90
20658;DHT22;10488;50.846;4.078;2022-07-23T10:14:47;25.20;99.90
20658;DHT22;10488;50.846;4.078;2022-07-23T10:17:14;25.20;99.90
20658;DHT22;10488;50.846;4.078;2022-07-23T10:19:40;25.10;99.90
20658;DHT22;10488;50.846;4.078;2022-07-23T10:22:06;25.30;99.90
20658;DHT22;10488;50.846;4.078;2022-07-23T10:27:54;26.20;99.90
20658;DHT22;10488;50.846;4.078;2022-07-23T10:33:44;26.00;99.90
20658;DHT22;10488;50.846;4.078;2022-07-23T10:36:37;25.70;99.90
20658;DHT22;10488;50.846;4.078;2022-07-23T10:39:22;25.70;99.90
20658;DHT22;10488;50.846;4.078;2022-07-23T10:41:49;25.60;99.90
20658;DHT22;10488;50.846;4.078;2022-07-23T10:44:18;25.70;99.90
20658;DHT22;10488;50.846;4.078;2022-07-23T10:46:59;25.40;99.90
20658;DHT22;10488;50.846;4.078;2022-07-23T10:49:54;25.30;99.90
20658;DHT22;10488;50.846;4.078;2022-07-23T10:52:39;25.90;99.90
20658;DHT22;10488;50.846;4.078;2022-07-23T10:57:50;25.20;99.90
20658;DHT22;10488;50.846;4.078;2022-07-23T11:00:20;25.10;99.90
20658;DHT22;10488;50.846;4.078;2022-07-23T11:02:48;25.60;99.90
20658;DHT22;10488;50.846;4.078;2022-07-23T11:05:22;25.30;99.90
20658;DHT22;10488;50.846;4.078;2022-07-23T11:13:31;26.90;99.90
20658;DHT22;10488;50.846;4.078;2022-07-23T11:26:55;26.10;99.90
20658;DHT22;10488;50.846;4.078;2022-07-23T11:34:41;25.20;99.90
20658;DHT22;10488;50.846;4.078;2022-07-23T11:37:10;25.80;99.90
20658;DHT22;10488;50.846;4.078;2022-07-23T11:39:37;26.40;99.90
20658;DHT22;10488;50.846;4.078;2022-07-23T11:42:04;25.90;99.90
20658;DHT22;10488;50.846;4.078;2022-07-23T11:44:32;26.00;99.90
20658;DHT22;10488;50.846;4.078;2022-07-23T11:47:00;26.40;99.90
20658;DHT22;10488;50.846;4.078;2022-07-23T11:49:26;26.50;99.90
20658;DHT22;10488;50.846;4.078;2022-07-23T11:52:05;27.00;99.90
20658;DHT22;10488;50.846;4.078;2022-07-23T11:54:32;27.50;99.90
20658;DHT22;10488;50.846;4.078;2022-07-23T11:56:59;27.60;99.90
20658;DHT22;10488;50.846;4.078;2022-07-23T11:59:31;26.20;99.90
20658;DHT22;10488;50.846;4.078;2022-07-23T12:02:03;26.20;99.90
20658;DHT22;10488;50.846;4.078;2022-07-23T12:04:43;26.60;99.90
20658;DHT22;10488;50.846;4.078;2022-07-23T12:07:29;27.00;99.90
20658;DHT22;10488;50.846;4.078;2022-07-23T12:10:02;27.00;99.90
20658;DHT22;10488;50.846;4.078;2022-07-23T12:12:35;27.00;99.90
20658;DHT22;10488;50.846;4.078;2022-07-23T12:15:01;27.10;99.90
20658;DHT22;10488;50.846;4.078;2022-07-23T12:17:29;27.40;99.90
20658;DHT22;10488;50.846;4.078;2022-07-23T12:19:56;27.60;99.90
20658;DHT22;10488;50.846;4.078;2022-07-23T12:22:24;27.10;99.90
20658;DHT22;10488;50.846;4.078;2022-07-23T12:24:54;26.90;99.90
20658;DHT22;10488;50.846;4.078;2022-07-23T12:27:23;27.00;99.90
20658;DHT22;10488;50.846;4.078;2022-07-23T12:29:49;27.40;99.90
20658;DHT22;10488;50.846;4.078;2022-07-23T12:32:23;27.00;99.90
20658;DHT22;10488;50.846;4.078;2022-07-23T12:34:53;26.90;99.90
20658;DHT22;10488;50.846;4.078;2022-07-23T12:37:38;26.80;99.90
20658;DHT22;10488;50.846;4.078;2022-07-23T12:42:57;27.50;99.90
20658;DHT22;10488;50.846;4.078;2022-07-23T12:45:24;27.60;99.90
20658;DHT22;10488;50.846;4.078;2022-07-23T12:47:52;27.80;99.90
20658;DHT22;10488;50.846;4.078;2022-07-23T12:50:35;28.00;99.90
20658;DHT22;10488;50.846;4.078;2022-07-23T12:53:26;27.50;99.90
20658;DHT22;10488;50.846;4.078;2022-07-23T12:56:16;27.40;99.90
20658;DHT22;10488;50.846;4.078;2022-07-23T12:58:49;27.50;99.90
20658;DHT22;10488;50.846;4.078;2022-07-23T13:04:11;27.40;99.90
20658;DHT22;10488;50.846;4.078;2022-07-23T13:06:39;27.70;99.90
20658;DHT22;10488;50.846;4.078;2022-07-23T13:09:09;27.70;99.90
20658;DHT22;10488;50.846;4.078;2022-07-23T13:11:34;27.90;99.90
20658;DHT22;10488;50.846;4.078;2022-07-23T13:14:01;27.40;99.90
20658;DHT22;10488;50.846;4.078;2022-07-23T13:16:27;27.20;99.90
20658;DHT22;10488;50.846;4.078;2022-07-23T13:18:53;27.20;99.90
20658;DHT22;10488;50.846;4.078;2022-07-23T13:21:19;26.90;99.90
20658;DHT22;10488;50.846;4.078;2022-07-23T13:23:44;27.10;99.90
20658;DHT22;10488;50.846;4.078;2022-07-23T13:26:10;26.50;99.90
20658;DHT22;10488;50.846;4.078;2022-07-23T13:28:36;27.20;99.90
20658;DHT22;10488;50.846;4.078;2022-07-23T13:31:02;27.70;99.90
20658;DHT22;10488;50.846;4.078;2022-07-23T13:33:27;28.20;99.90
20658;DHT22;10488;50.846;4.078;2022-07-23T13:35:53;28.30;99.90
20658;DHT22;10488;50.846;4.078;2022-07-23T13:38:20;28.50;99.90
20658;DHT22;10488;50.846;4.078;2022-07-23T13:40:48;28.00;99.90
20658;DHT22;10488;50.846;4.078;2022-07-23T13:43:16;28.10;99.90
20658;DHT22;10488;50.846;4.078;2022-07-23T13:45:43;28.40;99.90
20658;DHT22;10488;50.846;4.078;2022-07-23T13:48:10;28.70;99.90
20658;DHT22;10488;50.846;4.078;2022-07-23T13:50:36;28.20;99.90
20658;DHT22;10488;50.846;4.078;2022-07-23T13:53:07;27.90;99.90
20658;DHT22;10488;50.846;4.078;2022-07-23T13:55:33;28.00;99.90
20658;DHT22;10488;50.846;4.078;2022-07-23T13:58:00;28.10;99.90
20658;DHT22;10488;50.846;4.078;2022-07-23T14:00:27;28.20;99.90
20658;DHT22;10488;50.846;4.078;2022-07-23T14:02:53;28.20;99.90
20658;DHT22;10488;50.846;4.078;2022-07-23T14:05:19;28.20;99.90
20658;DHT22;10488;50.846;4.078;2022-07-23T14:07:45;28.30;99.90
20658;DHT22;10488;50.846;4.078;2022-07-23T14:10:12;28.00;99.90
20658;DHT22;10488;50.846;4.078;2022-07-23T14:12:39;27.50;99.90
20658;DHT22;10488;50.846;4.078;2022-07-23T14:15:06;27.20;99.90
20658;DHT22;10488;50.846;4.078;2022-07-23T14:17:35;27.30;99.90
20658;DHT22;10488;50.846;4.078;2022-07-23T14:20:02;27.60;99.90
20658;DHT22;10488;50.846;4.078;2022-07-23T14:22:28;27.70;99.90
20658;DHT22;10488;50.846;4.078;2022-07-23T14:24:53;27.70;99.90
20658;DHT22;10488;50.846;4.078;2022-07-23T14:27:19;27.80;99.90
20658;DHT22;10488;50.846;4.078;2022-07-23T14:29:45;27.80;99.90
20658;DHT22;10488;50.846;4.078;2022-07-23T14:32:11;28.00;99.90
20658;DHT22;10488;50.846;4.078;2022-07-23T14:34:36;28.10;99.90
20658;DHT22;10488;50.846;4.078;2022-07-23T14:37:02;27.60;99.90
20658;DHT22;10488;50.846;4.078;2022-07-23T14:39:28;27.30;99.90
20658;DHT22;10488;50.846;4.078;2022-07-23T14:41:54;27.30;99.90
20658;DHT22;10488;50.846;4.078;2022-07-23T14:44:19;27.70;99.90
20658;DHT22;10488;50.846;4.078;2022-07-23T14:46:45;27.90;99.90
20658;DHT22;10488;50.846;4.078;2022-07-23T14:49:11;28.40;99.90
20658;DHT22;10488;50.846;4.078;2022-07-23T14:51:36;28.80;99.90
20658;DHT22;10488;50.846;4.078;2022-07-23T14:54:06;28.20;99.90
20658;DHT22;10488;50.846;4.078;2022-07-23T14:56:32;28.00;99.90
20658;DHT22;10488;50.846;4.078;2022-07-23T14:58:59;27.70;99.90
20658;DHT22;10488;50.846;4.078;2022-07-23T15:01:24;27.70;99.90
20658;DHT22;10488;50.846;4.078;2022-07-23T15:03:50;27.80;99.90
20658;DHT22;10488;50.846;4.078;2022-07-23T15:06:17;27.90;99.90
20658;DHT22;10488;50.846;4.078;2022-07-23T15:08:43;27.80;99.90
20658;DHT22;10488;50.846;4.078;2022-07-23T15:11:09;27.10;99.90
20658;DHT22;10488;50.846;4.078;2022-07-23T15:13:36;27.40;99.90
20658;DHT22;10488;50.846;4.078;2022-07-23T15:16:03;27.50;99.90
20658;DHT22;10488;50.846;4.078;2022-07-23T15:18:29;27.60;99.90
20658;DHT22;10488;50.846;4.078;2022-07-23T15:20:54;27.60;99.90
20658;DHT22;10488;50.846;4.078;2022-07-23T15:23:20;27.60;99.90
20658;DHT22;10488;50.846;4.078;2022-07-23T15:25:46;27.40;99.90
20658;DHT22;10488;50.846;4.078;2022-07-23T15:28:12;27.70;99.90
20658;DHT22;10488;50.846;4.078;2022-07-23T15:30:37;27.60;99.90
20658;DHT22;10488;50.846;4.078;2022-07-23T15:33:04;27.60;99.90
20658;DHT22;10488;50.846;4.078;2022-07-23T15:35:30;27.80;99.90
20658;DHT22;10488;50.846;4.078;2022-07-23T15:37:56;27.50;99.90
20658;DHT22;10488;50.846;4.078;2022-07-23T15:40:22;27.80;99.90
20658;DHT22;10488;50.846;4.078;2022-07-23T15:42:47;27.30;99.90
20658;DHT22;10488;50.846;4.078;2022-07-23T15:45:13;27.40;99.90
20658;DHT22;10488;50.846;4.078;2022-07-23T15:47:40;27.20;99.90
20658;DHT22;10488;50.846;4.078;2022-07-23T15:50:06;27.40;99.90
20658;DHT22;10488;50.846;4.078;2022-07-23T15:52:32;27.80;99.90
20658;DHT22;10488;50.846;4.078;2022-07-23T15:54:57;27.60;99.90
20658;DHT22;10488;50.846;4.078;2022-07-23T15:57:23;27.20;99.90
20658;DHT22;10488;50.846;4.078;2022-07-23T15:59:49;27.10;99.90
20658;DHT22;10488;50.846;4.078;2022-07-23T16:02:15;27.00;99.90
20658;DHT22;10488;50.846;4.078;2022-07-23T16:04:42;27.20;99.90
20658;DHT22;10488;50.846;4.078;2022-07-23T16:07:07;27.40;99.90
20658;DHT22;10488;50.846;4.078;2022-07-23T16:09:33;27.20;99.90
20658;DHT22;10488;50.846;4.078;2022-07-23T16:11:59;27.60;99.90
20658;DHT22;10488;50.846;4.078;2022-07-23T16:14:25;27.80;99.90
20658;DHT22;10488;50.846;4.078;2022-07-23T16:16:51;27.90;99.90
20658;DHT22;10488;50.846;4.078;2022-07-23T16:19:16;27.80;99.90
20658;DHT22;10488;50.846;4.078;2022-07-23T16:21:42;28.00;99.90
20658;DHT22;10488;50.846;4.078;2022-07-23T16:24:08;27.90;99.90